McNary, Oregon
Current Conditions -  °F | °C
As of 11:53 AM on Wednesday 17 Dec 2014 (Local Time) from KHRI Reporting Station
Haze Haze  
Wind Chill: 38°   Ceiling: 500
Heat Index: 38°   Visibility: 2mi
Dew Point: 36°   Wind: 3mph
Humidity: 93%   Direction: 220°SW
Pressure: 29.93"   Gusts: NA
Location:  45.9093°N, 119.286°W
Report Text: KHRI 171953Z AUTO 22003KT 2SM BR OVC005 03/02 A2993 RMK AO2 SLP138 T00330022
Loading
Personal Weather Stations






























Interactive Weather Map New forecast layout! Learn more

10-Day Weather Forecast

Advertisements
Track Severe Weather on mobile